sensor_id;sensor_type;location;lat;lon;timestamp;P1;durP1;ratioP1;P2;durP2;ratioP2
46721;SDS011;32455;43.430;23.136;2022-09-27T00:01:42;12.57;;;9.60;;
46721;SDS011;32455;43.430;23.136;2022-09-27T00:04:28;10.10;;;9.18;;
46721;SDS011;32455;43.430;23.136;2022-09-27T00:07:13;9.68;;;7.43;;
46721;SDS011;32455;43.430;23.136;2022-09-27T00:09:59;7.60;;;6.90;;
46721;SDS011;32455;43.430;23.136;2022-09-27T00:12:44;8.02;;;6.88;;
46721;SDS011;32455;43.430;23.136;2022-09-27T00:15:29;7.70;;;6.95;;
46721;SDS011;32455;43.430;23.136;2022-09-27T00:18:14;7.93;;;7.18;;
46721;SDS011;32455;43.430;23.136;2022-09-27T00:21:04;8.20;;;7.50;;
46721;SDS011;32455;43.430;23.136;2022-09-27T00:23:54;10.65;;;6.75;;
46721;SDS011;32455;43.430;23.136;2022-09-27T00:26:39;7.97;;;7.22;;
46721;SDS011;32455;43.430;23.136;2022-09-27T00:29:24;9.18;;;7.60;;
46721;SDS011;32455;43.430;23.136;2022-09-27T00:32:09;8.68;;;6.72;;
46721;SDS011;32455;43.430;23.136;2022-09-27T00:34:54;4.72;;;4.25;;
46721;SDS011;32455;43.430;23.136;2022-09-27T00:37:39;5.28;;;4.45;;
46721;SDS011;32455;43.430;23.136;2022-09-27T00:40:23;8.05;;;4.60;;
46721;SDS011;32455;43.430;23.136;2022-09-27T00:46:02;4.50;;;4.10;;
46721;SDS011;32455;43.430;23.136;2022-09-27T00:48:48;5.07;;;4.68;;
46721;SDS011;32455;43.430;23.136;2022-09-27T00:51:44;8.60;;;7.00;;
46721;SDS011;32455;43.430;23.136;2022-09-27T00:54:32;7.50;;;6.70;;
46721;SDS011;32455;43.430;23.136;2022-09-27T00:57:20;6.88;;;6.25;;
46721;SDS011;32455;43.430;23.136;2022-09-27T01:00:07;7.22;;;6.60;;
46721;SDS011;32455;43.430;23.136;2022-09-27T01:02:53;8.15;;;6.75;;
46721;SDS011;32455;43.430;23.136;2022-09-27T01:05:39;9.30;;;6.80;;
46721;SDS011;32455;43.430;23.136;2022-09-27T01:08:26;8.27;;;6.10;;
46721;SDS011;32455;43.430;23.136;2022-09-27T01:11:21;7.35;;;6.65;;
46721;SDS011;32455;43.430;23.136;2022-09-27T01:20:56;7.20;;;6.43;;
46721;SDS011;32455;43.430;23.136;2022-09-27T01:24:06;10.77;;;7.13;;
46721;SDS011;32455;43.430;23.136;2022-09-27T01:27:08;9.73;;;7.78;;
46721;SDS011;32455;43.430;23.136;2022-09-27T01:30:23;9.20;;;8.30;;
46721;SDS011;32455;43.430;23.136;2022-09-27T01:42:59;14.27;;;10.73;;
46721;SDS011;32455;43.430;23.136;2022-09-27T01:46:00;11.65;;;9.80;;
46721;SDS011;32455;43.430;23.136;2022-09-27T01:49:03;11.02;;;9.63;;
46721;SDS011;32455;43.430;23.136;2022-09-27T01:51:58;12.23;;;9.60;;
46721;SDS011;32455;43.430;23.136;2022-09-27T01:54:49;14.32;;;9.82;;
46721;SDS011;32455;43.430;23.136;2022-09-27T01:57:41;14.68;;;10.65;;
46721;SDS011;32455;43.430;23.136;2022-09-27T02:00:30;11.15;;;9.52;;
46721;SDS011;32455;43.430;23.136;2022-09-27T02:03:19;11.95;;;9.65;;
46721;SDS011;32455;43.430;23.136;2022-09-27T02:06:12;8.93;;;8.02;;
46721;SDS011;32455;43.430;23.136;2022-09-27T02:12:09;9.32;;;8.13;;
46721;SDS011;32455;43.430;23.136;2022-09-27T02:15:02;9.52;;;7.90;;
46721;SDS011;32455;43.430;23.136;2022-09-27T02:17:57;10.45;;;7.85;;
46721;SDS011;32455;43.430;23.136;2022-09-27T02:20:48;8.15;;;7.35;;
46721;SDS011;32455;43.430;23.136;2022-09-27T02:23:40;6.70;;;6.00;;
46721;SDS011;32455;43.430;23.136;2022-09-27T02:26:35;7.70;;;6.95;;
46721;SDS011;32455;43.430;23.136;2022-09-27T02:29:28;9.68;;;6.35;;
46721;SDS011;32455;43.430;23.136;2022-09-27T02:32:21;7.43;;;6.57;;
46721;SDS011;32455;43.430;23.136;2022-09-27T02:35:08;6.82;;;6.15;;
46721;SDS011;32455;43.430;23.136;2022-09-27T02:37:58;6.13;;;5.63;;
46721;SDS011;32455;43.430;23.136;2022-09-27T02:40:44;5.88;;;5.25;;
46721;SDS011;32455;43.430;23.136;2022-09-27T02:43:31;6.40;;;5.65;;
46721;SDS011;32455;43.430;23.136;2022-09-27T02:46:24;5.85;;;5.35;;
46721;SDS011;32455;43.430;23.136;2022-09-27T02:56:13;6.90;;;5.18;;
46721;SDS011;32455;43.430;23.136;2022-09-27T03:05:52;5.75;;;5.15;;
46721;SDS011;32455;43.430;23.136;2022-09-27T03:08:32;5.65;;;5.15;;
46721;SDS011;32455;43.430;23.136;2022-09-27T03:11:19;7.88;;;4.43;;
46721;SDS011;32455;43.430;23.136;2022-09-27T03:14:04;6.35;;;4.80;;
46721;SDS011;32455;43.430;23.136;2022-09-27T03:16:49;6.40;;;5.80;;
46721;SDS011;32455;43.430;23.136;2022-09-27T03:19:34;6.10;;;5.57;;
46721;SDS011;32455;43.430;23.136;2022-09-27T03:22:19;6.60;;;6.00;;
46721;SDS011;32455;43.430;23.136;2022-09-27T03:25:05;6.93;;;6.22;;
46721;SDS011;32455;43.430;23.136;2022-09-27T03:27:51;7.32;;;6.47;;
46721;SDS011;32455;43.430;23.136;2022-09-27T03:30:35;8.13;;;7.32;;
46721;SDS011;32455;43.430;23.136;2022-09-27T03:33:21;8.65;;;7.85;;
46721;SDS011;32455;43.430;23.136;2022-09-27T03:36:06;8.80;;;7.90;;
46721;SDS011;32455;43.430;23.136;2022-09-27T03:38:51;9.85;;;8.30;;
46721;SDS011;32455;43.430;23.136;2022-09-27T03:41:35;7.55;;;6.72;;
46721;SDS011;32455;43.430;23.136;2022-09-27T03:44:20;8.10;;;7.40;;
46721;SDS011;32455;43.430;23.136;2022-09-27T03:47:06;8.00;;;7.13;;
46721;SDS011;32455;43.430;23.136;2022-09-27T03:49:51;6.85;;;6.18;;
46721;SDS011;32455;43.430;23.136;2022-09-27T03:52:36;7.28;;;6.57;;
46721;SDS011;32455;43.430;23.136;2022-09-27T03:55:23;7.20;;;6.38;;
46721;SDS011;32455;43.430;23.136;2022-09-27T03:58:08;6.00;;;5.50;;
46721;SDS011;32455;43.430;23.136;2022-09-27T04:00:53;8.50;;;6.07;;
46721;SDS011;32455;43.430;23.136;2022-09-27T04:03:38;7.53;;;6.43;;
46721;SDS011;32455;43.430;23.136;2022-09-27T04:06:24;6.45;;;5.85;;
46721;SDS011;32455;43.430;23.136;2022-09-27T04:09:10;6.03;;;5.43;;
46721;SDS011;32455;43.430;23.136;2022-09-27T04:11:56;6.28;;;5.70;;
46721;SDS011;32455;43.430;23.136;2022-09-27T04:14:41;6.10;;;5.60;;
46721;SDS011;32455;43.430;23.136;2022-09-27T04:17:26;5.88;;;5.38;;
46721;SDS011;32455;43.430;23.136;2022-09-27T04:20:12;6.70;;;5.97;;
46721;SDS011;32455;43.430;23.136;2022-09-27T04:22:56;6.80;;;6.10;;
46721;SDS011;32455;43.430;23.136;2022-09-27T04:25:41;6.97;;;6.38;;
46721;SDS011;32455;43.430;23.136;2022-09-27T04:28:27;7.32;;;6.63;;
46721;SDS011;32455;43.430;23.136;2022-09-27T04:31:13;6.35;;;5.75;;
46721;SDS011;32455;43.430;23.136;2022-09-27T04:33:57;5.72;;;5.22;;
46721;SDS011;32455;43.430;23.136;2022-09-27T04:36:43;5.38;;;4.88;;
46721;SDS011;32455;43.430;23.136;2022-09-27T04:39:31;5.40;;;4.90;;
46721;SDS011;32455;43.430;23.136;2022-09-27T04:42:16;5.40;;;4.93;;
46721;SDS011;32455;43.430;23.136;2022-09-27T04:45:02;6.15;;;4.82;;
46721;SDS011;32455;43.430;23.136;2022-09-27T04:47:47;5.18;;;4.78;;
46721;SDS011;32455;43.430;23.136;2022-09-27T04:50:33;4.85;;;4.45;;
46721;SDS011;32455;43.430;23.136;2022-09-27T04:53:18;4.07;;;3.72;;
46721;SDS011;32455;43.430;23.136;2022-09-27T04:56:03;5.13;;;4.00;;
46721;SDS011;32455;43.430;23.136;2022-09-27T04:58:49;3.95;;;3.47;;
46721;SDS011;32455;43.430;23.136;2022-09-27T05:01:34;4.32;;;3.92;;
46721;SDS011;32455;43.430;23.136;2022-09-27T05:04:19;3.72;;;3.42;;
46721;SDS011;32455;43.430;23.136;2022-09-27T05:07:05;3.85;;;3.55;;
46721;SDS011;32455;43.430;23.136;2022-09-27T05:09:49;4.50;;;3.67;;
46721;SDS011;32455;43.430;23.136;2022-09-27T05:12:34;4.20;;;3.80;;
46721;SDS011;32455;43.430;23.136;2022-09-27T05:15:19;4.10;;;3.45;;
46721;SDS011;32455;43.430;23.136;2022-09-27T05:18:05;5.47;;;4.97;;
46721;SDS011;32455;43.430;23.136;2022-09-27T05:20:51;4.68;;;4.22;;
46721;SDS011;32455;43.430;23.136;2022-09-27T05:23:37;5.18;;;4.68;;
46721;SDS011;32455;43.430;23.136;2022-09-27T05:26:23;4.47;;;4.07;;
46721;SDS011;32455;43.430;23.136;2022-09-27T05:29:07;4.82;;;4.35;;
46721;SDS011;32455;43.430;23.136;2022-09-27T05:31:53;4.50;;;4.00;;
46721;SDS011;32455;43.430;23.136;2022-09-27T05:34:39;3.55;;;3.25;;
46721;SDS011;32455;43.430;23.136;2022-09-27T05:37:27;4.35;;;3.58;;
46721;SDS011;32455;43.430;23.136;2022-09-27T05:40:14;5.03;;;4.57;;
46721;SDS011;32455;43.430;23.136;2022-09-27T05:42:59;5.80;;;3.60;;
46721;SDS011;32455;43.430;23.136;2022-09-27T05:45:45;5.07;;;4.65;;
46721;SDS011;32455;43.430;23.136;2022-09-27T05:48:30;6.05;;;5.47;;
46721;SDS011;32455;43.430;23.136;2022-09-27T05:51:15;6.57;;;5.97;;
46721;SDS011;32455;43.430;23.136;2022-09-27T05:54:02;6.97;;;6.38;;
46721;SDS011;32455;43.430;23.136;2022-09-27T05:56:48;7.18;;;6.47;;
46721;SDS011;32455;43.430;23.136;2022-09-27T05:59:33;6.93;;;6.22;;
46721;SDS011;32455;43.430;23.136;2022-09-27T06:02:18;10.60;;;9.40;;
46721;SDS011;32455;43.430;23.136;2022-09-27T06:05:03;13.95;;;12.45;;
46721;SDS011;32455;43.430;23.136;2022-09-27T06:07:49;6.30;;;5.72;;
46721;SDS011;32455;43.430;23.136;2022-09-27T06:10:35;4.57;;;4.18;;
46721;SDS011;32455;43.430;23.136;2022-09-27T06:13:20;4.53;;;4.13;;
46721;SDS011;32455;43.430;23.136;2022-09-27T06:16:05;5.60;;;4.47;;
46721;SDS011;32455;43.430;23.136;2022-09-27T06:18:52;6.13;;;5.53;;
46721;SDS011;32455;43.430;23.136;2022-09-27T06:21:37;6.90;;;5.75;;
46721;SDS011;32455;43.430;23.136;2022-09-27T06:24:21;4.88;;;4.47;;
46721;SDS011;32455;43.430;23.136;2022-09-27T06:27:07;9.70;;;4.88;;
46721;SDS011;32455;43.430;23.136;2022-09-27T06:29:53;5.53;;;5.03;;
46721;SDS011;32455;43.430;23.136;2022-09-27T06:32:39;4.82;;;4.43;;
46721;SDS011;32455;43.430;23.136;2022-09-27T06:35:25;6.75;;;4.93;;
46721;SDS011;32455;43.430;23.136;2022-09-27T06:38:12;6.20;;;4.50;;
46721;SDS011;32455;43.430;23.136;2022-09-27T06:41:03;5.68;;;5.18;;
46721;SDS011;32455;43.430;23.136;2022-09-27T06:43:50;8.88;;;7.97;;
46721;SDS011;32455;43.430;23.136;2022-09-27T06:46:41;14.20;;;12.75;;
46721;SDS011;32455;43.430;23.136;2022-09-27T06:53:28;4.82;;;4.32;;
46721;SDS011;32455;43.430;23.136;2022-09-27T06:56:35;6.63;;;5.93;;
46721;SDS011;32455;43.430;23.136;2022-09-27T07:18:32;7.55;;;4.32;;
46721;SDS011;32455;43.430;23.136;2022-09-27T07:28:39;6.80;;;6.15;;
46721;SDS011;32455;43.430;23.136;2022-09-27T07:31:28;5.70;;;5.07;;
46721;SDS011;32455;43.430;23.136;2022-09-27T07:34:14;6.80;;;5.28;;
46721;SDS011;32455;43.430;23.136;2022-09-27T07:37:02;6.47;;;5.88;;
46721;SDS011;32455;43.430;23.136;2022-09-27T07:39:49;5.00;;;4.55;;
46721;SDS011;32455;43.430;23.136;2022-09-27T07:42:35;4.55;;;4.15;;
46721;SDS011;32455;43.430;23.136;2022-09-27T07:45:25;8.75;;;6.13;;
46721;SDS011;32455;43.430;23.136;2022-09-27T07:48:14;4.82;;;4.43;;
46721;SDS011;32455;43.430;23.136;2022-09-27T07:51:00;4.97;;;4.53;;
46721;SDS011;32455;43.430;23.136;2022-09-27T07:53:46;4.30;;;3.90;;
46721;SDS011;32455;43.430;23.136;2022-09-27T07:56:32;3.97;;;3.67;;
46721;SDS011;32455;43.430;23.136;2022-09-27T07:59:17;4.40;;;4.03;;
46721;SDS011;32455;43.430;23.136;2022-09-27T08:02:03;5.45;;;3.63;;
46721;SDS011;32455;43.430;23.136;2022-09-27T08:04:48;5.07;;;3.60;;
46721;SDS011;32455;43.430;23.136;2022-09-27T08:07:35;4.22;;;3.85;;
46721;SDS011;32455;43.430;23.136;2022-09-27T08:10:23;5.50;;;3.80;;
46721;SDS011;32455;43.430;23.136;2022-09-27T08:13:14;4.80;;;3.70;;
46721;SDS011;32455;43.430;23.136;2022-09-27T08:16:03;4.20;;;3.90;;
46721;SDS011;32455;43.430;23.136;2022-09-27T08:18:49;7.40;;;4.00;;
46721;SDS011;32455;43.430;23.136;2022-09-27T08:21:34;4.03;;;3.72;;
46721;SDS011;32455;43.430;23.136;2022-09-27T08:24:20;5.65;;;4.30;;
46721;SDS011;32455;43.430;23.136;2022-09-27T08:27:06;5.30;;;4.50;;
46721;SDS011;32455;43.430;23.136;2022-09-27T08:29:52;4.63;;;4.22;;
46721;SDS011;32455;43.430;23.136;2022-09-27T08:32:37;4.90;;;4.50;;
46721;SDS011;32455;43.430;23.136;2022-09-27T08:35:23;5.93;;;5.25;;
46721;SDS011;32455;43.430;23.136;2022-09-27T08:38:09;5.90;;;5.30;;
46721;SDS011;32455;43.430;23.136;2022-09-27T08:41:04;6.30;;;5.35;;
46721;SDS011;32455;43.430;23.136;2022-09-27T08:44:05;6.78;;;6.07;;
46721;SDS011;32455;43.430;23.136;2022-09-27T08:47:05;7.72;;;7.03;;
46721;SDS011;32455;43.430;23.136;2022-09-27T08:50:24;9.30;;;6.18;;
46721;SDS011;32455;43.430;23.136;2022-09-27T08:55:58;8.05;;;7.22;;
46721;SDS011;32455;43.430;23.136;2022-09-27T08:58:56;8.90;;;8.13;;
46721;SDS011;32455;43.430;23.136;2022-09-27T09:04:38;10.63;;;9.40;;
46721;SDS011;32455;43.430;23.136;2022-09-27T09:07:41;9.45;;;8.55;;
46721;SDS011;32455;43.430;23.136;2022-09-27T09:35:19;8.93;;;7.38;;
46721;SDS011;32455;43.430;23.136;2022-09-27T15:08:16;4.18;;;2.30;;
46721;SDS011;32455;43.430;23.136;2022-09-27T15:11:03;2.30;;;2.10;;
46721;SDS011;32455;43.430;23.136;2022-09-27T15:13:50;3.83;;;2.00;;
46721;SDS011;32455;43.430;23.136;2022-09-27T15:16:38;3.92;;;1.85;;
46721;SDS011;32455;43.430;23.136;2022-09-27T15:19:27;3.15;;;2.10;;
46721;SDS011;32455;43.430;23.136;2022-09-27T15:25:29;2.22;;;2.03;;
46721;SDS011;32455;43.430;23.136;2022-09-27T15:28:42;2.65;;;2.13;;
46721;SDS011;32455;43.430;23.136;2022-09-27T15:31:32;2.50;;;2.30;;
46721;SDS011;32455;43.430;23.136;2022-09-27T15:34:19;5.53;;;2.05;;
46721;SDS011;32455;43.430;23.136;2022-09-27T15:37:05;2.35;;;2.20;;
46721;SDS011;32455;43.430;23.136;2022-09-27T15:39:51;1.70;;;1.60;;
46721;SDS011;32455;43.430;23.136;2022-09-27T15:42:53;19.60;;;17.60;;
46721;SDS011;32455;43.430;23.136;2022-09-27T15:45:47;3.78;;;3.08;;
46721;SDS011;32455;43.430;23.136;2022-09-27T15:48:37;2.47;;;2.15;;
46721;SDS011;32455;43.430;23.136;2022-09-27T15:51:38;2.45;;;2.22;;
46721;SDS011;32455;43.430;23.136;2022-09-27T15:54:29;2.72;;;1.70;;
46721;SDS011;32455;43.430;23.136;2022-09-27T15:57:18;3.63;;;1.58;;
46721;SDS011;32455;43.430;23.136;2022-09-27T16:00:04;1.88;;;1.52;;
46721;SDS011;32455;43.430;23.136;2022-09-27T16:02:51;2.13;;;1.48;;
46721;SDS011;32455;43.430;23.136;2022-09-27T16:05:37;1.80;;;1.70;;
46721;SDS011;32455;43.430;23.136;2022-09-27T16:08:23;1.70;;;1.60;;
46721;SDS011;32455;43.430;23.136;2022-09-27T16:11:08;2.03;;;1.90;;
46721;SDS011;32455;43.430;23.136;2022-09-27T16:13:57;2.13;;;1.92;;
46721;SDS011;32455;43.430;23.136;2022-09-27T16:16:45;1.80;;;1.35;;
46721;SDS011;32455;43.430;23.136;2022-09-27T16:19:34;3.97;;;1.80;;
46721;SDS011;32455;43.430;23.136;2022-09-27T16:22:20;4.20;;;1.98;;
46721;SDS011;32455;43.430;23.136;2022-09-27T16:25:05;2.65;;;2.40;;
46721;SDS011;32455;43.430;23.136;2022-09-27T16:27:50;2.55;;;2.13;;
46721;SDS011;32455;43.430;23.136;2022-09-27T16:30:37;3.55;;;2.28;;
46721;SDS011;32455;43.430;23.136;2022-09-27T16:33:23;2.08;;;1.80;;
46721;SDS011;32455;43.430;23.136;2022-09-27T16:36:08;1.90;;;1.77;;
46721;SDS011;32455;43.430;23.136;2022-09-27T16:38:58;5.60;;;2.80;;
46721;SDS011;32455;43.430;23.136;2022-09-27T16:41:44;3.03;;;2.58;;
46721;SDS011;32455;43.430;23.136;2022-09-27T16:44:29;4.00;;;2.60;;
46721;SDS011;32455;43.430;23.136;2022-09-27T16:47:19;5.15;;;2.25;;
46721;SDS011;32455;43.430;23.136;2022-09-27T16:50:05;3.33;;;2.40;;
46721;SDS011;32455;43.430;23.136;2022-09-27T16:53:09;4.75;;;2.35;;
46721;SDS011;32455;43.430;23.136;2022-09-27T16:56:00;2.50;;;2.30;;
46721;SDS011;32455;43.430;23.136;2022-09-27T16:58:46;2.60;;;2.15;;
46721;SDS011;32455;43.430;23.136;2022-09-27T17:01:32;2.45;;;2.20;;
46721;SDS011;32455;43.430;23.136;2022-09-27T17:04:18;4.47;;;2.55;;
46721;SDS011;32455;43.430;23.136;2022-09-27T17:07:04;2.95;;;2.65;;
46721;SDS011;32455;43.430;23.136;2022-09-27T17:09:50;3.25;;;2.55;;
46721;SDS011;32455;43.430;23.136;2022-09-27T17:12:35;3.15;;;2.78;;
46721;SDS011;32455;43.430;23.136;2022-09-27T17:15:20;4.55;;;3.17;;
46721;SDS011;32455;43.430;23.136;2022-09-27T17:18:06;4.50;;;4.10;;
46721;SDS011;32455;43.430;23.136;2022-09-27T17:20:51;4.13;;;3.80;;
46721;SDS011;32455;43.430;23.136;2022-09-27T17:23:37;5.55;;;4.00;;
46721;SDS011;32455;43.430;23.136;2022-09-27T17:26:22;4.32;;;3.67;;
46721;SDS011;32455;43.430;23.136;2022-09-27T17:29:10;5.20;;;4.70;;
46721;SDS011;32455;43.430;23.136;2022-09-27T17:31:56;6.88;;;4.15;;
46721;SDS011;32455;43.430;23.136;2022-09-27T17:34:42;6.18;;;5.00;;
46721;SDS011;32455;43.430;23.136;2022-09-27T17:37:28;7.32;;;6.53;;
46721;SDS011;32455;43.430;23.136;2022-09-27T17:40:13;7.35;;;6.35;;
46721;SDS011;32455;43.430;23.136;2022-09-27T17:43:00;8.73;;;7.18;;
46721;SDS011;32455;43.430;23.136;2022-09-27T17:45:45;8.00;;;7.13;;
46721;SDS011;32455;43.430;23.136;2022-09-27T17:48:30;10.85;;;8.20;;
46721;SDS011;32455;43.430;23.136;2022-09-27T17:51:36;9.88;;;7.60;;
46721;SDS011;32455;43.430;23.136;2022-09-27T17:54:23;8.88;;;8.00;;
46721;SDS011;32455;43.430;23.136;2022-09-27T17:57:12;8.73;;;7.82;;
46721;SDS011;32455;43.430;23.136;2022-09-27T17:59:57;8.63;;;7.85;;
46721;SDS011;32455;43.430;23.136;2022-09-27T18:02:42;8.85;;;7.10;;
46721;SDS011;32455;43.430;23.136;2022-09-27T18:05:31;9.45;;;8.23;;
46721;SDS011;32455;43.430;23.136;2022-09-27T18:08:16;8.07;;;7.28;;
46721;SDS011;32455;43.430;23.136;2022-09-27T18:11:03;12.43;;;10.23;;
46721;SDS011;32455;43.430;23.136;2022-09-27T18:13:57;8.70;;;7.90;;
46721;SDS011;32455;43.430;23.136;2022-09-27T18:16:46;8.50;;;7.60;;
46721;SDS011;32455;43.430;23.136;2022-09-27T18:19:30;12.23;;;7.63;;
46721;SDS011;32455;43.430;23.136;2022-09-27T18:22:15;9.50;;;8.57;;
46721;SDS011;32455;43.430;23.136;2022-09-27T18:25:01;9.55;;;8.27;;
46721;SDS011;32455;43.430;23.136;2022-09-27T18:27:48;7.80;;;7.05;;
46721;SDS011;32455;43.430;23.136;2022-09-27T18:30:35;7.90;;;7.10;;
46721;SDS011;32455;43.430;23.136;2022-09-27T18:33:20;8.68;;;6.93;;
46721;SDS011;32455;43.430;23.136;2022-09-27T18:36:12;6.72;;;6.13;;
46721;SDS011;32455;43.430;23.136;2022-09-27T18:38:59;7.20;;;5.68;;
46721;SDS011;32455;43.430;23.136;2022-09-27T18:41:46;8.15;;;6.30;;
46721;SDS011;32455;43.430;23.136;2022-09-27T18:44:32;8.00;;;6.63;;
46721;SDS011;32455;43.430;23.136;2022-09-27T18:47:17;9.88;;;8.40;;
46721;SDS011;32455;43.430;23.136;2022-09-27T18:50:02;9.52;;;7.00;;
46721;SDS011;32455;43.430;23.136;2022-09-27T18:52:50;6.43;;;5.80;;
46721;SDS011;32455;43.430;23.136;2022-09-27T18:55:37;7.00;;;6.28;;
46721;SDS011;32455;43.430;23.136;2022-09-27T18:58:23;9.00;;;7.43;;
46721;SDS011;32455;43.430;23.136;2022-09-27T19:01:13;6.57;;;5.97;;
46721;SDS011;32455;43.430;23.136;2022-09-27T19:03:59;12.18;;;8.45;;
46721;SDS011;32455;43.430;23.136;2022-09-27T19:06:45;23.73;;;15.82;;
46721;SDS011;32455;43.430;23.136;2022-09-27T19:09:31;16.67;;;11.43;;
46721;SDS011;32455;43.430;23.136;2022-09-27T19:12:17;10.45;;;8.73;;
46721;SDS011;32455;43.430;23.136;2022-09-27T19:15:03;10.35;;;9.10;;
46721;SDS011;32455;43.430;23.136;2022-09-27T19:17:50;10.35;;;9.00;;
46721;SDS011;32455;43.430;23.136;2022-09-27T19:20:35;7.55;;;6.60;;
46721;SDS011;32455;43.430;23.136;2022-09-27T19:23:21;9.35;;;5.30;;
46721;SDS011;32455;43.430;23.136;2022-09-27T19:26:07;6.63;;;5.78;;
46721;SDS011;32455;43.430;23.136;2022-09-27T19:28:55;6.97;;;4.78;;
46721;SDS011;32455;43.430;23.136;2022-09-27T19:31:42;6.80;;;5.40;;
46721;SDS011;32455;43.430;23.136;2022-09-27T19:34:28;6.53;;;4.82;;
46721;SDS011;32455;43.430;23.136;2022-09-27T19:37:13;5.70;;;5.05;;
46721;SDS011;32455;43.430;23.136;2022-09-27T19:40:00;5.40;;;4.90;;
46721;SDS011;32455;43.430;23.136;2022-09-27T19:42:49;5.72;;;5.28;;
46721;SDS011;32455;43.430;23.136;2022-09-27T19:45:35;6.13;;;5.53;;
46721;SDS011;32455;43.430;23.136;2022-09-27T19:48:21;7.97;;;7.20;;
46721;SDS011;32455;43.430;23.136;2022-09-27T19:51:07;9.80;;;8.10;;
46721;SDS011;32455;43.430;23.136;2022-09-27T19:53:57;9.35;;;8.43;;
46721;SDS011;32455;43.430;23.136;2022-09-27T19:56:42;11.07;;;8.93;;
46721;SDS011;32455;43.430;23.136;2022-09-27T19:59:27;10.40;;;9.20;;
46721;SDS011;32455;43.430;23.136;2022-09-27T20:02:13;9.27;;;8.43;;
46721;SDS011;32455;43.430;23.136;2022-09-27T20:04:59;7.97;;;7.28;;
46721;SDS011;32455;43.430;23.136;2022-09-27T20:07:45;8.88;;;7.95;;
46721;SDS011;32455;43.430;23.136;2022-09-27T20:10:31;9.40;;;8.18;;
46721;SDS011;32455;43.430;23.136;2022-09-27T20:13:16;9.15;;;8.07;;
46721;SDS011;32455;43.430;23.136;2022-09-27T20:16:03;8.57;;;7.80;;
46721;SDS011;32455;43.430;23.136;2022-09-27T20:18:54;8.93;;;8.05;;
46721;SDS011;32455;43.430;23.136;2022-09-27T20:21:41;8.40;;;7.55;;
46721;SDS011;32455;43.430;23.136;2022-09-27T20:24:26;8.13;;;7.32;;
46721;SDS011;32455;43.430;23.136;2022-09-27T20:27:12;9.48;;;8.48;;
46721;SDS011;32455;43.430;23.136;2022-09-27T20:29:57;9.55;;;7.15;;
46721;SDS011;32455;43.430;23.136;2022-09-27T20:32:42;7.13;;;6.25;;
46721;SDS011;32455;43.430;23.136;2022-09-27T20:35:50;7.57;;;6.53;;
46721;SDS011;32455;43.430;23.136;2022-09-27T20:38:41;8.23;;;6.15;;
46721;SDS011;32455;43.430;23.136;2022-09-27T20:41:33;7.47;;;6.78;;
46721;SDS011;32455;43.430;23.136;2022-09-27T20:44:19;6.25;;;5.65;;
46721;SDS011;32455;43.430;23.136;2022-09-27T20:47:05;6.68;;;6.03;;
46721;SDS011;32455;43.430;23.136;2022-09-27T20:49:50;6.90;;;6.20;;
46721;SDS011;32455;43.430;23.136;2022-09-27T20:52:35;6.35;;;5.70;;
46721;SDS011;32455;43.430;23.136;2022-09-27T20:55:21;6.30;;;5.70;;
46721;SDS011;32455;43.430;23.136;2022-09-27T20:58:06;7.00;;;5.90;;
46721;SDS011;32455;43.430;23.136;2022-09-27T21:00:52;6.35;;;5.50;;
46721;SDS011;32455;43.430;23.136;2022-09-27T21:03:38;6.57;;;5.60;;
46721;SDS011;32455;43.430;23.136;2022-09-27T21:06:23;6.30;;;5.32;;
46721;SDS011;32455;43.430;23.136;2022-09-27T21:09:09;6.85;;;6.03;;
46721;SDS011;32455;43.430;23.136;2022-09-27T21:12:02;7.78;;;4.78;;
46721;SDS011;32455;43.430;23.136;2022-09-27T21:14:47;5.65;;;4.88;;
46721;SDS011;32455;43.430;23.136;2022-09-27T21:17:32;4.97;;;4.55;;
46721;SDS011;32455;43.430;23.136;2022-09-27T21:20:18;5.20;;;4.35;;
46721;SDS011;32455;43.430;23.136;2022-09-27T21:23:03;4.80;;;4.40;;
46721;SDS011;32455;43.430;23.136;2022-09-27T21:25:58;5.50;;;4.35;;
46721;SDS011;32455;43.430;23.136;2022-09-27T21:28:52;4.82;;;4.32;;
46721;SDS011;32455;43.430;23.136;2022-09-27T21:31:39;4.88;;;4.28;;
46721;SDS011;32455;43.430;23.136;2022-09-27T21:34:25;6.57;;;3.50;;
46721;SDS011;32455;43.430;23.136;2022-09-27T21:37:10;3.90;;;3.50;;
46721;SDS011;32455;43.430;23.136;2022-09-27T21:39:56;7.00;;;3.60;;
46721;SDS011;32455;43.430;23.136;2022-09-27T21:42:42;2.88;;;2.55;;
46721;SDS011;32455;43.430;23.136;2022-09-27T21:45:27;6.90;;;3.05;;
46721;SDS011;32455;43.430;23.136;2022-09-27T21:48:13;3.00;;;2.25;;
46721;SDS011;32455;43.430;23.136;2022-09-27T21:51:02;6.15;;;2.40;;
46721;SDS011;32455;43.430;23.136;2022-09-27T21:53:51;2.72;;;2.22;;
46721;SDS011;32455;43.430;23.136;2022-09-27T21:56:38;4.63;;;2.17;;
46721;SDS011;32455;43.430;23.136;2022-09-27T21:59:24;3.90;;;1.98;;
46721;SDS011;32455;43.430;23.136;2022-09-27T22:02:09;2.80;;;2.25;;
46721;SDS011;32455;43.430;23.136;2022-09-27T22:04:54;3.05;;;2.58;;
46721;SDS011;32455;43.430;23.136;2022-09-27T22:07:40;2.40;;;2.20;;
46721;SDS011;32455;43.430;23.136;2022-09-27T22:10:25;2.10;;;1.98;;
46721;SDS011;32455;43.430;23.136;2022-09-27T22:13:11;2.70;;;2.28;;
46721;SDS011;32455;43.430;23.136;2022-09-27T22:16:00;2.58;;;1.80;;
46721;SDS011;32455;43.430;23.136;2022-09-27T22:18:49;2.00;;;1.80;;
46721;SDS011;32455;43.430;23.136;2022-09-27T22:21:37;1.50;;;1.40;;
46721;SDS011;32455;43.430;23.136;2022-09-27T22:24:23;3.35;;;1.40;;
46721;SDS011;32455;43.430;23.136;2022-09-27T22:27:09;3.92;;;1.70;;
46721;SDS011;32455;43.430;23.136;2022-09-27T22:29:54;3.78;;;1.52;;
46721;SDS011;32455;43.430;23.136;2022-09-27T22:32:43;1.60;;;1.10;;
46721;SDS011;32455;43.430;23.136;2022-09-27T22:35:29;4.05;;;1.42;;
46721;SDS011;32455;43.430;23.136;2022-09-27T22:38:14;1.88;;;1.20;;
46721;SDS011;32455;43.430;23.136;2022-09-27T22:41:00;1.27;;;1.17;;
46721;SDS011;32455;43.430;23.136;2022-09-27T22:43:45;1.33;;;1.23;;
46721;SDS011;32455;43.430;23.136;2022-09-27T22:46:32;2.63;;;1.40;;
46721;SDS011;32455;43.430;23.136;2022-09-27T22:49:17;2.20;;;1.35;;
46721;SDS011;32455;43.430;23.136;2022-09-27T22:52:02;1.80;;;1.20;;
46721;SDS011;32455;43.430;23.136;2022-09-27T22:54:48;1.42;;;1.15;;
46721;SDS011;32455;43.430;23.136;2022-09-27T22:57:33;2.17;;;1.08;;
46721;SDS011;32455;43.430;23.136;2022-09-27T23:00:18;2.85;;;1.10;;
46721;SDS011;32455;43.430;23.136;2022-09-27T23:03:03;5.65;;;1.10;;
46721;SDS011;32455;43.430;23.136;2022-09-27T23:05:48;3.92;;;1.45;;
46721;SDS011;32455;43.430;23.136;2022-09-27T23:08:35;2.75;;;0.90;;
46721;SDS011;32455;43.430;23.136;2022-09-27T23:11:21;5.00;;;1.10;;
46721;SDS011;32455;43.430;23.136;2022-09-27T23:14:07;1.48;;;1.00;;
46721;SDS011;32455;43.430;23.136;2022-09-27T23:16:54;2.60;;;1.00;;
46721;SDS011;32455;43.430;23.136;2022-09-27T23:19:39;1.35;;;1.10;;
46721;SDS011;32455;43.430;23.136;2022-09-27T23:22:25;2.50;;;0.93;;
46721;SDS011;32455;43.430;23.136;2022-09-27T23:25:11;1.23;;;0.90;;
46721;SDS011;32455;43.430;23.136;2022-09-27T23:27:56;2.00;;;0.93;;
46721;SDS011;32455;43.430;23.136;2022-09-27T23:30:43;0.90;;;0.90;;
46721;SDS011;32455;43.430;23.136;2022-09-27T23:33:28;1.13;;;1.02;;
46721;SDS011;32455;43.430;23.136;2022-09-27T23:36:15;1.30;;;1.00;;
46721;SDS011;32455;43.430;23.136;2022-09-27T23:39:03;3.95;;;1.27;;
46721;SDS011;32455;43.430;23.136;2022-09-27T23:41:48;2.97;;;1.38;;
46721;SDS011;32455;43.430;23.136;2022-09-27T23:44:34;3.22;;;1.00;;